Rikiei No.8 — JD4201 — position and weather

sailwx.info

Track history (hours):
 
Tides and Currents Weather Stations Pressure Air Temp Water Temp Dewpoint Dewpoint Depression Visibility Wind Speed Wind Dir Waves Ship Positions

Rikiei No.8

Last reported at 2017-Dec-16 05:01 UTC. Time now 2017-Dec-16 05:18 UTC.
Position N 35°04' E 136°52'.

Length 80 m; draft 4.9 m.

Type: Cargo ship. MMSI: 431009718.

Date/timePositionNaut miles runAvg speedWind from/ knotsBaromVisibWave heightAir tempDewpointWater temp
2017-Dec-16 05:01N 35°04' E 136°52'0 0.2
2017-Dec-16 04:30N 35°04' E 136°52'510.2
2017-Dec-16 04:00N 34°60' E 136°49'612.2
2017-Dec-16 03:30N 34°54' E 136°47'612.3
2017-Dec-16 03:00N 34°48' E 136°48'612.0
2017-Dec-16 02:30N 34°43' E 136°51'912.1
2017-Dec-16 01:48N 34°36' E 136°59'411.1
2017-Dec-16 01:27N 34°33' E 137°02'612.3
2017-Dec-16 00:56N 34°33' E 137°09'512.3
2017-Dec-16 00:29N 34°34' E 137°16'5011.5
2017-Dec-15 20:11N 34°34' E 138°16'211.3
2017-Dec-15 19:59N 34°34' E 138°19'511.3
2017-Dec-15 19:30N 34°34' E 138°25'611.9
2017-Dec-15 19:00N 34°35' E 138°33'611.2
2017-Dec-15 18:29N 34°35' E 138°40'510.6
2017-Dec-15 18:00N 34°35' E 138°46'510.5
2017-Dec-15 17:30N 34°35' E 138°52'611.2
2017-Dec-15 16:57N 34°38' E 138°59'612.9
2017-Dec-15 16:28N 34°43' E 139°04'712.3
2017-Dec-15 15:56N 34°48' E 139°08'512.6
2017-Dec-15 15:30N 34°53' E 139°12'612.3
2017-Dec-15 15:00N 34°57' E 139°18'611.5
2017-Dec-15 14:30N 34°59' E 139°24'611.6
2017-Dec-15 14:00N 35°02' E 139°30'612.0
2017-Dec-15 13:30N 35°05' E 139°37'612.5
2017-Dec-15 13:00N 35°08' E 139°43'612.8
2017-Dec-15 12:30N 35°14' E 139°46'612.6
2017-Dec-15 12:01N 35°20' E 139°43'612.4
2017-Dec-15 11:30N 35°26' E 139°42'4 7.2
2017-Dec-15 11:00N 35°29' E 139°40'0 0.0
2017-Dec-15 10:31N 35°29' E 139°40'0 0.0
2017-Dec-15 10:01N 35°29' E 139°40'0 0.0
2017-Dec-15 09:31N 35°29' E 139°40'0 0.0
2017-Dec-15 09:00N 35°29' E 139°40'0 0.0
2017-Dec-15 08:30N 35°29' E 139°40'0 0.0
2017-Dec-15 08:00N 35°29' E 139°40'0 0.0
2017-Dec-15 07:30N 35°29' E 139°40'0 0.0
2017-Dec-15 07:01N 35°29' E 139°40'0 0.0
2017-Dec-15 06:31N 35°29' E 139°40'0 0.0
2017-Dec-15 06:01N 35°29' E 139°40'0 0.0
2017-Dec-15 05:30N 35°29' E 139°40'0 0.0
2017-Dec-15 05:01N 35°29' E 139°40'0 0.0
2017-Dec-15 04:31N 35°29' E 139°40'0 0.0
2017-Dec-15 04:00N 35°29' E 139°40'8 5.1
2017-Dec-15 02:31N 35°29' E 139°49'6 3.8
2017-Dec-15 00:59N 35°35' E 139°46'0 0.0
2017-Dec-15 00:29N 35°35' E 139°46'5 0.8
2017-Dec-14 18:19N 35°34' E 139°52'2 4.8
2017-Dec-14 18:00N 35°32' E 139°52'611.2
2017-Dec-14 17:31N 35°27' E 139°50'611.8
2017-Dec-14 17:01N 35°22' E 139°45'611.1
2017-Dec-14 16:31N 35°17' E 139°46'611.6
2017-Dec-14 16:00N 35°11' E 139°47'1111.0
2017-Dec-14 15:00N 35°01' E 139°40'611.9
2017-Dec-14 14:30N 34°58' E 139°34'612.2
2017-Dec-14 14:00N 34°55' E 139°28'612.8
2017-Dec-14 13:30N 34°51' E 139°21'713.5
2017-Dec-14 13:00N 34°46' E 139°15'713.4
2017-Dec-14 12:30N 34°42' E 139°09'612.7
2017-Dec-14 12:00N 34°38' E 139°03'612.9
2017-Dec-14 11:30N 34°35' E 138°56'713.2
2017-Dec-14 11:00N 34°35' E 138°48'713.2
2017-Dec-14 10:30N 34°34' E 138°40'612.2
2017-Dec-14 10:00N 34°33' E 138°32'612.5
2017-Dec-14 09:30N 34°33' E 138°25'711.9
2017-Dec-14 08:57N 34°33' E 138°17'612.2
2017-Dec-14 08:25N 34°32' E 138°09'512.7
2017-Dec-14 08:00N 34°32' E 138°03'712.7
2017-Dec-14 07:28N 34°32' E 137°54'3112.2
2017-Dec-14 04:55N 34°25' E 137°18'3111.5
2017-Dec-14 02:16N 34°11' E 136°45'19 2.9
2017-Dec-13 19:44N 34°28' E 136°55'310.5
2017-Dec-13 19:29N 34°30' E 136°52'1 1.7
2017-Dec-13 18:58N 34°30' E 136°51'0 0.0
2017-Dec-13 18:30N 34°30' E 136°51'0 0.0
2017-Dec-13 17:58N 34°30' E 136°51'0 0.0
2017-Dec-13 16:27N 34°30' E 136°51'0 0.0
2017-Dec-13 15:40N 34°30' E 136°51'0 0.0
2017-Dec-13 14:46N 34°30' E 136°51'0 0.0
2017-Dec-13 14:30N 34°30' E 136°51'0 0.0
2017-Dec-13 13:49N 34°30' E 136°51'0 0.0
2017-Dec-13 12:20N 34°30' E 136°51'0 0.0
2017-Dec-13 12:00N 34°30' E 136°51'0 0.0
2017-Dec-13 11:29N 34°30' E 136°51'0 0.0
2017-Dec-13 11:00N 34°30' E 136°51'0 0.0
2017-Dec-13 10:28N 34°30' E 136°51'0 0.0
2017-Dec-13 10:01N 34°30' E 136°51'0 0.0
2017-Dec-13 09:27N 34°30' E 136°51'0 0.1
2017-Dec-13 08:59N 34°30' E 136°51'0 0.0
2017-Dec-13 08:30N 34°30' E 136°51'0 0.3
2017-Dec-13 08:00N 34°30' E 136°51'510.2
2017-Dec-13 07:30N 34°34' E 136°48'613.0
2017-Dec-13 07:01N 34°41' E 136°47'713.4
2017-Dec-13 06:30N 34°47' E 136°46'612.9
2017-Dec-13 06:01N 34°54' E 136°45'612.8
2017-Dec-13 05:30N 34°60' E 136°47'2 4.5
2017-Dec-13 05:00N 35°02' E 136°48'0 0.0
2017-Dec-13 04:30N 35°02' E 136°48'0 0.0
2017-Dec-13 04:01N 35°02' E 136°48'0 0.0
2017-Dec-13 03:30N 35°02' E 136°48'0 0.0
2017-Dec-13 03:00N 35°02' E 136°48'0 0.0
2017-Dec-13 02:30N 35°02' E 136°48'0 0.3
2017-Dec-13 02:00N 35°02' E 136°48'4 8.5
2017-Dec-13 01:30N 34°58' E 136°46'612.4
2017-Dec-13 01:00N 34°52' E 136°47'611.9
2017-Dec-13 00:30N 34°46' E 136°49'611.0
2017-Dec-13 00:00N 34°41' E 136°52'1610.1
2017-Dec-12 22:22N 34°33' E 137°09'410.9
2017-Dec-12 22:00N 34°34' E 137°14'56 9.7
2017-Dec-12 16:13N 34°36' E 138°22'2 8.8
2017-Dec-12 16:00N 34°36' E 138°24'5 8.2
2017-Dec-12 15:27N 34°36' E 138°30'4 7.9
2017-Dec-12 14:59N 34°36' E 138°34'4 7.5
2017-Dec-12 14:30N 34°35' E 138°39'4 7.5
2017-Dec-12 14:00N 34°35' E 138°43'4 7.6
2017-Dec-12 13:30N 34°35' E 138°48'4 7.9
2017-Dec-12 13:00N 34°35' E 138°53'4 7.9
2017-Dec-12 12:30N 34°36' E 138°57'510.7
2017-Dec-12 11:59N 34°40' E 139°01'811.2
2017-Dec-12 11:17N 34°47' E 139°06'710.9
2017-Dec-12 10:41N 34°52' E 139°12'311.2
2017-Dec-12 10:28N 34°54' E 139°13'510.9
2017-Dec-12 10:00N 34°57' E 139°18'610.9
2017-Dec-12 09:29N 34°60' E 139°24'510.3
2017-Dec-12 09:00N 35°02' E 139°30'511.1
2017-Dec-12 08:30N 35°05' E 139°36'611.2
2017-Dec-12 07:59N 35°07' E 139°42'611.4
2017-Dec-12 07:30N 35°12' E 139°46'611.6
2017-Dec-12 07:00N 35°17' E 139°45'612.1
2017-Dec-12 06:30N 35°23' E 139°42'611.6
2017-Dec-12 06:00N 35°29' E 139°42'2 3.7
2017-Dec-12 05:30N 35°30' E 139°44'0 0.0
2017-Dec-12 05:00N 35°30' E 139°44'0 0.0
2017-Dec-12 04:30N 35°30' E 139°44'0 0.0
2017-Dec-12 04:01N 35°30' E 139°44'0 0.0
2017-Dec-12 03:30N 35°30' E 139°44'0 0.0
2017-Dec-12 03:00N 35°30' E 139°44'0 0.0
2017-Dec-12 02:31N 35°30' E 139°44'0 0.0
2017-Dec-12 02:01N 35°30' E 139°44'0 0.0
2017-Dec-12 01:31N 35°30' E 139°44'0 0.0
2017-Dec-12 01:01N 35°30' E 139°44'0 0.0
2017-Dec-12 00:30N 35°30' E 139°44'0 0.0
2017-Dec-12 00:01N 35°30' E 139°44'0 0.0
2017-Dec-11 23:30N 35°30' E 139°44'0 0.0
2017-Dec-11 23:01N 35°30' E 139°44'2 4.1
2017-Dec-11 22:31N 35°29' E 139°42'4 8.8
2017-Dec-11 22:01N 35°25' E 139°45'1 2.3
2017-Dec-11 21:30N 35°24' E 139°45'0 0.0
2017-Dec-11 21:00N 35°24' E 139°45'0 0.0
2017-Dec-11 20:30N 35°24' E 139°45'0 0.0
2017-Dec-11 20:00N 35°24' E 139°45'0 0.0
2017-Dec-11 19:30N 35°24' E 139°45'0 0.0
2017-Dec-11 19:00N 35°24' E 139°45'0 0.0
2017-Dec-11 18:30N 35°24' E 139°45'0 0.0
2017-Dec-11 18:00N 35°24' E 139°45'0 0.0
2017-Dec-11 17:29N 35°24' E 139°45'0 0.0
2017-Dec-11 17:00N 35°24' E 139°45'0 0.1
2017-Dec-11 16:30N 35°24' E 139°45'0 0.0
2017-Dec-11 16:00N 35°24' E 139°45'0 0.0
2017-Dec-11 15:30N 35°24' E 139°45'0 0.1
2017-Dec-11 15:00N 35°24' E 139°45'0 0.1
2017-Dec-11 14:30N 35°24' E 139°45'0 0.1
2017-Dec-11 14:01N 35°24' E 139°45'0 0.0
2017-Dec-11 13:31N 35°24' E 139°45'0 0.0
2017-Dec-11 12:59N 35°24' E 139°45'0 0.1
2017-Dec-11 12:30N 35°24' E 139°45'0 0.0
2017-Dec-11 11:59N 35°24' E 139°45'0 0.0
2017-Dec-11 11:30N 35°24' E 139°45'0 0.0
2017-Dec-11 11:00N 35°24' E 139°45'0 0.0
2017-Dec-11 10:30N 35°24' E 139°45'0 0.1
2017-Dec-11 10:01N 35°24' E 139°45'0 0.1
2017-Dec-11 09:31N 35°24' E 139°45'0 0.0
2017-Dec-11 09:01N 35°24' E 139°45'0 0.0
2017-Dec-11 08:30N 35°24' E 139°45'0 0.1
2017-Dec-11 08:01N 35°24' E 139°45'0 0.1
2017-Dec-11 07:30N 35°24' E 139°45'0 0.0
2017-Dec-11 07:01N 35°24' E 139°45'0 0.1
2017-Dec-11 06:29N 35°24' E 139°45'0 0.1
2017-Dec-11 06:00N 35°24' E 139°45'0 0.1
2017-Dec-11 05:31N 35°24' E 139°45'0 0.0
2017-Dec-11 05:00N 35°24' E 139°45'0 0.0
2017-Dec-11 04:30N 35°24' E 139°45'0 0.0
2017-Dec-11 03:59N 35°24' E 139°45'5 9.4
2017-Dec-11 03:30N 35°27' E 139°41'2 3.6
2017-Dec-11 03:01N 35°28' E 139°39'0 0.0
2017-Dec-11 02:31N 35°28' E 139°39'0 0.0
2017-Dec-11 02:01N 35°28' E 139°39'0 0.0
2017-Dec-11 01:31N 35°28' E 139°39'0 0.0
2017-Dec-11 01:00N 35°28' E 139°39'0 0.0
2017-Dec-11 00:31N 35°28' E 139°39'0 0.0
2017-Dec-11 00:01N 35°28' E 139°39'0 0.0
2017-Dec-10 23:30N 35°28' E 139°39'0 0.0
2017-Dec-10 23:01N 35°28' E 139°39'0 0.0
2017-Dec-10 22:30N 35°28' E 139°39'0 0.0
2017-Dec-10 22:01N 35°28' E 139°39'2 3.3
2017-Dec-10 21:31N 35°27' E 139°41'5 9.2
2017-Dec-10 21:01N 35°24' E 139°45'0 0.2
2017-Dec-10 20:27N 35°24' E 139°45'0 0.0
2017-Dec-10 20:00N 35°24' E 139°45'0 0.0
2017-Dec-10 19:30N 35°24' E 139°45'1 2.9
2017-Dec-10 19:00N 35°22' E 139°44'510.6
2017-Dec-10 18:30N 35°17' E 139°45'611.1
2017-Dec-10 18:00N 35°12' E 139°47'612.1
2017-Dec-10 17:31N 35°06' E 139°46'611.7
2017-Dec-10 17:00N 34°60' E 139°45'5 9.1
2017-Dec-10 16:30N 34°55' E 139°46'17 8.9
2017-Dec-10 14:38N 34°58' E 140°06'  
2017-Dec-07 21:36N 41°30' E 141°19'112.2
2017-Dec-07 21:30N 41°30' E 141°18'611.9
2017-Dec-07 21:00N 41°32' E 141°10'713.8
2017-Dec-07 20:30N 41°34' E 141°02'713.7
2017-Dec-07 20:00N 41°35' E 140°53'713.5
2017-Dec-07 19:30N 41°31' E 140°45'612.8
2017-Dec-07 19:00N 41°28' E 140°38'612.6
2017-Dec-07 18:30N 41°24' E 140°32'4212.5
2017-Dec-07 15:08N 40°51' E 139°57'  
Track history (hours):
 
Tides and Currents Weather Stations Pressure Air Temp Water Temp Dewpoint Dewpoint Depression Visibility Wind Speed Wind Dir Waves Ship Positions

Rikiei No.8

Last reported at 2017-Dec-16 05:01 UTC. Time now 2017-Dec-16 05:18 UTC.
Position N 35°04' E 136°52'.

Length 80 m; draft 4.9 m.

Type: Cargo ship. MMSI: 431009718.

Date/timePositionNaut miles runAvg speedWind from/ knotsBaromVisibWave heightAir tempDewpointWater temp
2017-Dec-16 05:01N 35°04' E 136°52'0 0.2
2017-Dec-16 04:30N 35°04' E 136°52'510.2
2017-Dec-16 04:00N 34°60' E 136°49'612.2
2017-Dec-16 03:30N 34°54' E 136°47'612.3
2017-Dec-16 03:00N 34°48' E 136°48'612.0
2017-Dec-16 02:30N 34°43' E 136°51'912.1
2017-Dec-16 01:48N 34°36' E 136°59'411.1
2017-Dec-16 01:27N 34°33' E 137°02'612.3
2017-Dec-16 00:56N 34°33' E 137°09'512.3
2017-Dec-16 00:29N 34°34' E 137°16'5011.5
2017-Dec-15 20:11N 34°34' E 138°16'211.3
2017-Dec-15 19:59N 34°34' E 138°19'511.3
2017-Dec-15 19:30N 34°34' E 138°25'611.9
2017-Dec-15 19:00N 34°35' E 138°33'611.2
2017-Dec-15 18:29N 34°35' E 138°40'510.6
2017-Dec-15 18:00N 34°35' E 138°46'510.5
2017-Dec-15 17:30N 34°35' E 138°52'611.2
2017-Dec-15 16:57N 34°38' E 138°59'612.9
2017-Dec-15 16:28N 34°43' E 139°04'712.3
2017-Dec-15 15:56N 34°48' E 139°08'512.6
2017-Dec-15 15:30N 34°53' E 139°12'612.3
2017-Dec-15 15:00N 34°57' E 139°18'611.5
2017-Dec-15 14:30N 34°59' E 139°24'611.6
2017-Dec-15 14:00N 35°02' E 139°30'612.0
2017-Dec-15 13:30N 35°05' E 139°37'612.5
2017-Dec-15 13:00N 35°08' E 139°43'612.8
2017-Dec-15 12:30N 35°14' E 139°46'612.6
2017-Dec-15 12:01N 35°20' E 139°43'612.4
2017-Dec-15 11:30N 35°26' E 139°42'4 7.2
2017-Dec-15 11:00N 35°29' E 139°40'0 0.0
2017-Dec-15 10:31N 35°29' E 139°40'0 0.0
2017-Dec-15 10:01N 35°29' E 139°40'0 0.0
2017-Dec-15 09:31N 35°29' E 139°40'0 0.0
2017-Dec-15 09:00N 35°29' E 139°40'0 0.0
2017-Dec-15 08:30N 35°29' E 139°40'0 0.0
2017-Dec-15 08:00N 35°29' E 139°40'0 0.0
2017-Dec-15 07:30N 35°29' E 139°40'0 0.0
2017-Dec-15 07:01N 35°29' E 139°40'0 0.0
2017-Dec-15 06:31N 35°29' E 139°40'0 0.0
2017-Dec-15 06:01N 35°29' E 139°40'0 0.0
2017-Dec-15 05:30N 35°29' E 139°40'0 0.0
2017-Dec-15 05:01N 35°29' E 139°40'0 0.0
2017-Dec-15 04:31N 35°29' E 139°40'0 0.0
2017-Dec-15 04:00N 35°29' E 139°40'8 5.1
2017-Dec-15 02:31N 35°29' E 139°49'6 3.8
2017-Dec-15 00:59N 35°35' E 139°46'0 0.0
2017-Dec-15 00:29N 35°35' E 139°46'5 0.8
2017-Dec-14 18:19N 35°34' E 139°52'2 4.8
2017-Dec-14 18:00N 35°32' E 139°52'611.2
2017-Dec-14 17:31N 35°27' E 139°50'611.8
2017-Dec-14 17:01N 35°22' E 139°45'611.1
2017-Dec-14 16:31N 35°17' E 139°46'611.6
2017-Dec-14 16:00N 35°11' E 139°47'1111.0
2017-Dec-14 15:00N 35°01' E 139°40'611.9
2017-Dec-14 14:30N 34°58' E 139°34'612.2
2017-Dec-14 14:00N 34°55' E 139°28'612.8
2017-Dec-14 13:30N 34°51' E 139°21'713.5
2017-Dec-14 13:00N 34°46' E 139°15'713.4
2017-Dec-14 12:30N 34°42' E 139°09'612.7
2017-Dec-14 12:00N 34°38' E 139°03'612.9
2017-Dec-14 11:30N 34°35' E 138°56'713.2
2017-Dec-14 11:00N 34°35' E 138°48'713.2
2017-Dec-14 10:30N 34°34' E 138°40'612.2
2017-Dec-14 10:00N 34°33' E 138°32'612.5
2017-Dec-14 09:30N 34°33' E 138°25'711.9
2017-Dec-14 08:57N 34°33' E 138°17'612.2
2017-Dec-14 08:25N 34°32' E 138°09'512.7
2017-Dec-14 08:00N 34°32' E 138°03'712.7
2017-Dec-14 07:28N 34°32' E 137°54'3112.2
2017-Dec-14 04:55N 34°25' E 137°18'3111.5
2017-Dec-14 02:16N 34°11' E 136°45'19 2.9
2017-Dec-13 19:44N 34°28' E 136°55'310.5
2017-Dec-13 19:29N 34°30' E 136°52'1 1.7
2017-Dec-13 18:58N 34°30' E 136°51'0 0.0
2017-Dec-13 18:30N 34°30' E 136°51'0 0.0
2017-Dec-13 17:58N 34°30' E 136°51'0 0.0
2017-Dec-13 16:27N 34°30' E 136°51'0 0.0
2017-Dec-13 15:40N 34°30' E 136°51'0 0.0
2017-Dec-13 14:46N 34°30' E 136°51'0 0.0
2017-Dec-13 14:30N 34°30' E 136°51'0 0.0
2017-Dec-13 13:49N 34°30' E 136°51'0 0.0
2017-Dec-13 12:20N 34°30' E 136°51'0 0.0
2017-Dec-13 12:00N 34°30' E 136°51'0 0.0
2017-Dec-13 11:29N 34°30' E 136°51'0 0.0
2017-Dec-13 11:00N 34°30' E 136°51'0 0.0
2017-Dec-13 10:28N 34°30' E 136°51'0 0.0
2017-Dec-13 10:01N 34°30' E 136°51'0 0.0
2017-Dec-13 09:27N 34°30' E 136°51'0 0.1
2017-Dec-13 08:59N 34°30' E 136°51'0 0.0
2017-Dec-13 08:30N 34°30' E 136°51'0 0.3
2017-Dec-13 08:00N 34°30' E 136°51'510.2
2017-Dec-13 07:30N 34°34' E 136°48'613.0
2017-Dec-13 07:01N 34°41' E 136°47'713.4
2017-Dec-13 06:30N 34°47' E 136°46'612.9
2017-Dec-13 06:01N 34°54' E 136°45'612.8
2017-Dec-13 05:30N 34°60' E 136°47'2 4.5
2017-Dec-13 05:00N 35°02' E 136°48'0 0.0
2017-Dec-13 04:30N 35°02' E 136°48'0 0.0
2017-Dec-13 04:01N 35°02' E 136°48'0 0.0
2017-Dec-13 03:30N 35°02' E 136°48'0 0.0
2017-Dec-13 03:00N 35°02' E 136°48'0 0.0
2017-Dec-13 02:30N 35°02' E 136°48'0 0.3
2017-Dec-13 02:00N 35°02' E 136°48'4 8.5
2017-Dec-13 01:30N 34°58' E 136°46'612.4
2017-Dec-13 01:00N 34°52' E 136°47'611.9
2017-Dec-13 00:30N 34°46' E 136°49'611.0
2017-Dec-13 00:00N 34°41' E 136°52'1610.1
2017-Dec-12 22:22N 34°33' E 137°09'410.9
2017-Dec-12 22:00N 34°34' E 137°14'56 9.7
2017-Dec-12 16:13N 34°36' E 138°22'2 8.8
2017-Dec-12 16:00N 34°36' E 138°24'5 8.2
2017-Dec-12 15:27N 34°36' E 138°30'4 7.9
2017-Dec-12 14:59N 34°36' E 138°34'4 7.5
2017-Dec-12 14:30N 34°35' E 138°39'4 7.5
2017-Dec-12 14:00N 34°35' E 138°43'4 7.6
2017-Dec-12 13:30N 34°35' E 138°48'4 7.9
2017-Dec-12 13:00N 34°35' E 138°53'4 7.9
2017-Dec-12 12:30N 34°36' E 138°57'510.7
2017-Dec-12 11:59N 34°40' E 139°01'811.2
2017-Dec-12 11:17N 34°47' E 139°06'710.9
2017-Dec-12 10:41N 34°52' E 139°12'311.2
2017-Dec-12 10:28N 34°54' E 139°13'510.9
2017-Dec-12 10:00N 34°57' E 139°18'610.9
2017-Dec-12 09:29N 34°60' E 139°24'510.3
2017-Dec-12 09:00N 35°02' E 139°30'511.1
2017-Dec-12 08:30N 35°05' E 139°36'611.2
2017-Dec-12 07:59N 35°07' E 139°42'611.4
2017-Dec-12 07:30N 35°12' E 139°46'611.6
2017-Dec-12 07:00N 35°17' E 139°45'612.1
2017-Dec-12 06:30N 35°23' E 139°42'611.6
2017-Dec-12 06:00N 35°29' E 139°42'2 3.7
2017-Dec-12 05:30N 35°30' E 139°44'0 0.0
2017-Dec-12 05:00N 35°30' E 139°44'0 0.0
2017-Dec-12 04:30N 35°30' E 139°44'0 0.0
2017-Dec-12 04:01N 35°30' E 139°44'0 0.0
2017-Dec-12 03:30N 35°30' E 139°44'0 0.0
2017-Dec-12 03:00N 35°30' E 139°44'0 0.0
2017-Dec-12 02:31N 35°30' E 139°44'0 0.0
2017-Dec-12 02:01N 35°30' E 139°44'0 0.0
2017-Dec-12 01:31N 35°30' E 139°44'0 0.0
2017-Dec-12 01:01N 35°30' E 139°44'0 0.0
2017-Dec-12 00:30N 35°30' E 139°44'0 0.0
2017-Dec-12 00:01N 35°30' E 139°44'0 0.0
2017-Dec-11 23:30N 35°30' E 139°44'0 0.0
2017-Dec-11 23:01N 35°30' E 139°44'2 4.1
2017-Dec-11 22:31N 35°29' E 139°42'4 8.8
2017-Dec-11 22:01N 35°25' E 139°45'1 2.3
2017-Dec-11 21:30N 35°24' E 139°45'0 0.0
2017-Dec-11 21:00N 35°24' E 139°45'0 0.0
2017-Dec-11 20:30N 35°24' E 139°45'0 0.0
2017-Dec-11 20:00N 35°24' E 139°45'0 0.0
2017-Dec-11 19:30N 35°24' E 139°45'0 0.0
2017-Dec-11 19:00N 35°24' E 139°45'0 0.0
2017-Dec-11 18:30N 35°24' E 139°45'0 0.0
2017-Dec-11 18:00N 35°24' E 139°45'0 0.0
2017-Dec-11 17:29N 35°24' E 139°45'0 0.0
2017-Dec-11 17:00N 35°24' E 139°45'0 0.1
2017-Dec-11 16:30N 35°24' E 139°45'0 0.0
2017-Dec-11 16:00N 35°24' E 139°45'0 0.0
2017-Dec-11 15:30N 35°24' E 139°45'0 0.1
2017-Dec-11 15:00N 35°24' E 139°45'0 0.1
2017-Dec-11 14:30N 35°24' E 139°45'0 0.1
2017-Dec-11 14:01N 35°24' E 139°45'0 0.0
2017-Dec-11 13:31N 35°24' E 139°45'0 0.0
2017-Dec-11 12:59N 35°24' E 139°45'0 0.1
2017-Dec-11 12:30N 35°24' E 139°45'0 0.0
2017-Dec-11 11:59N 35°24' E 139°45'0 0.0
2017-Dec-11 11:30N 35°24' E 139°45'0 0.0
2017-Dec-11 11:00N 35°24' E 139°45'0 0.0
2017-Dec-11 10:30N 35°24' E 139°45'0 0.1
2017-Dec-11 10:01N 35°24' E 139°45'0 0.1
2017-Dec-11 09:31N 35°24' E 139°45'0 0.0
2017-Dec-11 09:01N 35°24' E 139°45'0 0.0
2017-Dec-11 08:30N 35°24' E 139°45'0 0.1
2017-Dec-11 08:01N 35°24' E 139°45'0 0.1
2017-Dec-11 07:30N 35°24' E 139°45'0 0.0
2017-Dec-11 07:01N 35°24' E 139°45'0 0.1
2017-Dec-11 06:29N 35°24' E 139°45'0 0.1
2017-Dec-11 06:00N 35°24' E 139°45'0 0.1
2017-Dec-11 05:31N 35°24' E 139°45'0 0.0
2017-Dec-11 05:00N 35°24' E 139°45'0 0.0
2017-Dec-11 04:30N 35°24' E 139°45'0 0.0
2017-Dec-11 03:59N 35°24' E 139°45'5 9.4
2017-Dec-11 03:30N 35°27' E 139°41'2 3.6
2017-Dec-11 03:01N 35°28' E 139°39'0 0.0
2017-Dec-11 02:31N 35°28' E 139°39'0 0.0
2017-Dec-11 02:01N 35°28' E 139°39'0 0.0
2017-Dec-11 01:31N 35°28' E 139°39'0 0.0
2017-Dec-11 01:00N 35°28' E 139°39'0 0.0
2017-Dec-11 00:31N 35°28' E 139°39'0 0.0
2017-Dec-11 00:01N 35°28' E 139°39'0 0.0
2017-Dec-10 23:30N 35°28' E 139°39'0 0.0
2017-Dec-10 23:01N 35°28' E 139°39'0 0.0
2017-Dec-10 22:30N 35°28' E 139°39'0 0.0
2017-Dec-10 22:01N 35°28' E 139°39'2 3.3
2017-Dec-10 21:31N 35°27' E 139°41'5 9.2
2017-Dec-10 21:01N 35°24' E 139°45'0 0.2
2017-Dec-10 20:27N 35°24' E 139°45'0 0.0
2017-Dec-10 20:00N 35°24' E 139°45'0 0.0
2017-Dec-10 19:30N 35°24' E 139°45'1 2.9
2017-Dec-10 19:00N 35°22' E 139°44'510.6
2017-Dec-10 18:30N 35°17' E 139°45'611.1
2017-Dec-10 18:00N 35°12' E 139°47'612.1
2017-Dec-10 17:31N 35°06' E 139°46'611.7
2017-Dec-10 17:00N 34°60' E 139°45'5 9.1
2017-Dec-10 16:30N 34°55' E 139°46'17 8.9
2017-Dec-10 14:38N 34°58' E 140°06'  
2017-Dec-07 21:36N 41°30' E 141°19'112.2
2017-Dec-07 21:30N 41°30' E 141°18'611.9
2017-Dec-07 21:00N 41°32' E 141°10'713.8
2017-Dec-07 20:30N 41°34' E 141°02'713.7
2017-Dec-07 20:00N 41°35' E 140°53'713.5
2017-Dec-07 19:30N 41°31' E 140°45'612.8
2017-Dec-07 19:00N 41°28' E 140°38'612.6
2017-Dec-07 18:30N 41°24' E 140°32'4212.5
2017-Dec-07 15:08N 40°51' E 139°57'  

Dump ship's entire track history